createdAt,value
2017-09-27T00:01:50.446Z,8.70
2017-09-27T00:04:18.776Z,8.70
2017-09-27T00:06:47.088Z,8.60
2017-09-27T00:09:15.789Z,8.60
2017-09-27T00:11:44.174Z,8.60
2017-09-27T00:14:12.523Z,8.60
2017-09-27T00:16:40.268Z,8.50
2017-09-27T00:19:09.229Z,8.50
2017-09-27T00:21:43.258Z,8.50
2017-09-27T00:24:18.443Z,8.50
2017-09-27T00:26:46.866Z,8.40
2017-09-27T00:29:15.387Z,8.40
2017-09-27T00:31:43.903Z,8.40
2017-09-27T00:34:12.344Z,8.30
2017-09-27T00:36:40.663Z,8.30
2017-09-27T00:39:08.983Z,8.30
2017-09-27T00:41:37.332Z,8.30
2017-09-27T00:44:05.655Z,8.30
2017-09-27T00:46:33.991Z,8.20
2017-09-27T00:49:02.323Z,8.20
2017-09-27T00:51:30.668Z,8.20
2017-09-27T00:53:58.992Z,8.20
2017-09-27T00:56:27.340Z,8.20
2017-09-27T00:58:55.667Z,8.10
2017-09-27T01:01:24.018Z,8.10
2017-09-27T01:03:52.379Z,8.10
2017-09-27T01:06:20.711Z,8.10
2017-09-27T01:08:49.039Z,8.00
2017-09-27T01:11:17.380Z,8.00
2017-09-27T01:13:45.716Z,8.00
2017-09-27T01:16:14.028Z,8.00
2017-09-27T01:18:42.388Z,7.90
2017-09-27T01:21:09.932Z,7.90
2017-09-27T01:23:38.281Z,7.80
2017-09-27T01:26:06.602Z,7.80
2017-09-27T01:28:34.944Z,7.80
2017-09-27T01:31:03.268Z,7.80
2017-09-27T01:33:30.847Z,7.80
2017-09-27T01:35:59.176Z,7.70
2017-09-27T01:38:27.547Z,7.70
2017-09-27T01:40:55.874Z,7.70
2017-09-27T01:43:24.187Z,7.70
2017-09-27T01:45:52.528Z,7.70
2017-09-27T01:48:20.852Z,7.70
2017-09-27T01:50:49.187Z,7.70
2017-09-27T01:53:17.500Z,7.70
2017-09-27T01:55:45.840Z,7.70
2017-09-27T01:58:14.158Z,7.70
2017-09-27T02:00:42.495Z,7.60
2017-09-27T02:03:10.807Z,7.60
2017-09-27T02:05:39.153Z,7.60
2017-09-27T02:08:07.477Z,7.60
2017-09-27T02:10:35.824Z,7.50
2017-09-27T02:13:04.143Z,7.50
2017-09-27T02:15:32.460Z,7.50
2017-09-27T02:18:00.806Z,7.50
2017-09-27T02:20:29.136Z,7.40
2017-09-27T02:22:57.465Z,7.40
2017-09-27T02:25:25.774Z,7.40
2017-09-27T02:27:54.165Z,7.40
2017-09-27T02:30:22.483Z,7.30
2017-09-27T02:32:50.859Z,7.30
2017-09-27T02:35:19.175Z,7.30
2017-09-27T02:37:47.512Z,7.30
2017-09-27T02:40:15.845Z,7.20
2017-09-27T02:42:44.178Z,7.20
2017-09-27T02:45:12.516Z,7.20
2017-09-27T02:47:40.851Z,7.20
2017-09-27T02:50:09.214Z,7.20
2017-09-27T02:52:37.563Z,7.20
2017-09-27T02:55:05.910Z,7.20
2017-09-27T02:57:34.242Z,7.20
2017-09-27T03:00:02.584Z,7.20
2017-09-27T03:02:30.974Z,7.20
2017-09-27T03:04:59.322Z,7.20
2017-09-27T03:07:27.657Z,7.20
2017-09-27T03:09:55.980Z,7.10
2017-09-27T03:12:24.331Z,7.10
2017-09-27T03:14:52.647Z,7.10
2017-09-27T03:17:20.992Z,7.10
2017-09-27T03:19:49.321Z,7.10
2017-09-27T03:22:17.668Z,7.10
2017-09-27T03:24:47.318Z,7.00
2017-09-27T03:27:15.689Z,7.00
2017-09-27T03:29:44.011Z,7.00
2017-09-27T03:32:12.351Z,7.00
2017-09-27T03:34:40.703Z,7.00
2017-09-27T03:37:09.271Z,7.00
2017-09-27T03:39:37.606Z,7.00
2017-09-27T03:42:05.996Z,6.90
2017-09-27T03:44:34.339Z,6.90
2017-09-27T03:47:02.666Z,6.90
2017-09-27T03:49:31.003Z,6.90
2017-09-27T03:51:59.487Z,6.90
2017-09-27T03:54:27.826Z,6.90
2017-09-27T03:56:56.142Z,6.80
2017-09-27T03:59:24.483Z,6.80
2017-09-27T04:01:52.812Z,6.80
2017-09-27T04:04:21.164Z,6.80
2017-09-27T04:06:49.525Z,6.80
2017-09-27T04:09:17.867Z,6.80
2017-09-27T04:11:46.196Z,6.80
2017-09-27T04:14:14.595Z,6.80
2017-09-27T04:16:42.940Z,6.80
2017-09-27T04:19:11.280Z,6.80
2017-09-27T04:21:39.626Z,6.80
2017-09-27T04:24:07.950Z,6.70
2017-09-27T04:26:37.287Z,6.70
2017-09-27T04:29:05.616Z,6.70
2017-09-27T04:31:33.966Z,6.70
2017-09-27T04:34:02.279Z,6.70
2017-09-27T04:36:30.695Z,6.70
2017-09-27T04:38:59.022Z,6.70
2017-09-27T04:41:27.364Z,6.70
2017-09-27T04:43:55.684Z,6.60
2017-09-27T04:46:24.010Z,6.60
2017-09-27T04:48:52.353Z,6.60
2017-09-27T04:51:20.670Z,6.60
2017-09-27T04:53:49.007Z,6.60
2017-09-27T04:56:17.331Z,6.60
2017-09-27T04:58:45.673Z,6.60
2017-09-27T05:01:13.995Z,6.60
2017-09-27T05:03:42.348Z,6.60
2017-09-27T05:06:10.676Z,6.60
2017-09-27T05:08:39.035Z,6.60
2017-09-27T05:11:07.371Z,6.60
2017-09-27T05:13:35.696Z,6.60
2017-09-27T05:16:04.040Z,6.60
2017-09-27T05:18:32.359Z,6.50
2017-09-27T05:21:00.695Z,6.60
2017-09-27T05:23:29.162Z,6.50
2017-09-27T05:25:57.720Z,6.50
2017-09-27T05:28:26.037Z,6.40
2017-09-27T05:30:54.404Z,6.40
2017-09-27T05:33:22.727Z,6.50
2017-09-27T05:35:51.067Z,6.50
2017-09-27T05:38:19.387Z,6.50
2017-09-27T05:40:47.736Z,6.50
2017-09-27T05:43:16.061Z,6.60
2017-09-27T05:45:44.429Z,6.60
2017-09-27T05:48:12.753Z,6.60
2017-09-27T05:50:41.080Z,6.60
2017-09-27T05:53:09.425Z,6.70
2017-09-27T05:55:37.789Z,6.70
2017-09-27T05:58:06.139Z,6.70
2017-09-27T06:00:34.459Z,6.70
2017-09-27T06:03:02.796Z,6.80
2017-09-27T06:05:31.115Z,6.90
2017-09-27T06:07:59.452Z,6.90
2017-09-27T06:10:27.832Z,7.00
2017-09-27T06:12:56.179Z,7.10
2017-09-27T06:15:24.503Z,7.10
2017-09-27T06:17:52.876Z,7.20
2017-09-27T06:20:21.200Z,7.30
2017-09-27T06:22:49.523Z,7.30
2017-09-27T06:25:17.959Z,7.40
2017-09-27T06:27:46.290Z,7.50
2017-09-27T06:30:14.805Z,7.50
2017-09-27T06:32:42.514Z,7.50
2017-09-27T06:35:10.891Z,7.60
2017-09-27T06:37:39.227Z,7.70
2017-09-27T06:40:07.571Z,7.70
2017-09-27T06:42:35.919Z,7.80
2017-09-27T06:45:04.285Z,7.80
2017-09-27T06:47:32.650Z,7.90
2017-09-27T06:50:00.967Z,8.00
2017-09-27T06:52:29.319Z,8.10
2017-09-27T06:54:57.639Z,8.30
2017-09-27T06:57:26.007Z,8.40
2017-09-27T06:59:54.375Z,8.60
2017-09-27T07:02:22.721Z,8.80
2017-09-27T07:04:51.056Z,9.00
2017-09-27T07:07:19.397Z,9.30
2017-09-27T07:09:47.715Z,9.50
2017-09-27T07:12:16.033Z,9.80
2017-09-27T07:14:44.372Z,10.00
2017-09-27T07:17:12.713Z,10.20
2017-09-27T07:19:41.067Z,10.40
2017-09-27T07:22:09.392Z,10.60
2017-09-27T07:24:37.769Z,10.80
2017-09-27T07:27:06.089Z,11.00
2017-09-27T07:29:34.436Z,11.30
2017-09-27T07:32:02.760Z,11.50
2017-09-27T07:34:31.101Z,11.70
2017-09-27T07:36:59.447Z,11.80
2017-09-27T07:39:27.777Z,11.80
2017-09-27T07:41:56.120Z,12.00
2017-09-27T07:44:24.446Z,12.10
2017-09-27T07:46:52.799Z,12.20
2017-09-27T07:49:21.135Z,12.20
2017-09-27T07:51:49.475Z,12.20
2017-09-27T07:54:17.787Z,12.30
2017-09-27T07:56:46.123Z,12.30
2017-09-27T07:59:14.439Z,12.40
2017-09-27T08:01:42.783Z,12.50
2017-09-27T08:04:11.107Z,12.60
2017-09-27T08:06:39.424Z,12.90
2017-09-27T08:09:07.773Z,13.20
2017-09-27T08:11:36.095Z,13.30
2017-09-27T08:14:04.438Z,13.50
2017-09-27T08:16:33.106Z,13.80
2017-09-27T08:19:01.468Z,14.00
2017-09-27T08:21:29.791Z,14.20
2017-09-27T08:23:58.171Z,14.30
2017-09-27T08:26:26.487Z,14.50
2017-09-27T08:28:54.843Z,14.70
2017-09-27T08:31:23.155Z,14.90
2017-09-27T08:33:51.479Z,15.00
2017-09-27T08:36:19.820Z,15.10
2017-09-27T08:38:48.148Z,15.20
2017-09-27T08:41:16.483Z,15.40
2017-09-27T08:43:44.800Z,15.60
2017-09-27T08:46:13.226Z,15.80
2017-09-27T08:48:41.580Z,16.00
2017-09-27T08:51:09.975Z,16.20
2017-09-27T08:53:38.292Z,16.40
2017-09-27T08:56:06.652Z,16.60
2017-09-27T08:58:34.974Z,16.80
2017-09-27T09:01:03.317Z,16.90
2017-09-27T09:03:31.632Z,17.10
2017-09-27T09:05:59.956Z,17.30
2017-09-27T09:08:28.300Z,17.40
2017-09-27T09:10:56.852Z,17.60
2017-09-27T09:13:25.195Z,17.70
2017-09-27T09:15:53.535Z,17.80
2017-09-27T09:18:22.000Z,18.00
2017-09-27T09:20:49.578Z,17.90
2017-09-27T09:23:17.984Z,18.30
2017-09-27T09:25:46.300Z,18.40
2017-09-27T09:28:14.641Z,18.50
2017-09-27T09:30:42.991Z,18.70
2017-09-27T09:33:11.349Z,19.00
2017-09-27T09:35:39.665Z,19.20
2017-09-27T09:38:07.988Z,19.50
2017-09-27T09:40:36.354Z,19.70
2017-09-27T09:43:04.658Z,19.90
2017-09-27T09:45:32.988Z,20.20
2017-09-27T09:48:01.304Z,20.40
2017-09-27T09:50:29.665Z,20.70
2017-09-27T09:52:57.979Z,20.80
2017-09-27T09:55:26.306Z,20.90
2017-09-27T09:57:54.667Z,21.00
2017-09-27T10:00:23.017Z,21.10
2017-09-27T10:02:51.353Z,21.20
2017-09-27T10:05:18.955Z,21.20
2017-09-27T10:07:47.271Z,21.20
2017-09-27T10:10:15.593Z,21.20
2017-09-27T10:12:43.929Z,21.20
2017-09-27T10:15:12.239Z,21.40
2017-09-27T10:17:40.581Z,21.50
2017-09-27T10:20:08.897Z,21.70
2017-09-27T10:22:37.239Z,21.90
2017-09-27T10:25:05.551Z,21.80
2017-09-27T10:27:33.893Z,21.80
2017-09-27T10:30:02.199Z,21.70
2017-09-27T10:32:30.555Z,21.50
2017-09-27T10:34:58.871Z,21.60
2017-09-27T10:37:27.180Z,21.50
2017-09-27T10:39:55.507Z,21.50
2017-09-27T10:42:23.824Z,21.50
2017-09-27T10:44:52.179Z,21.60
2017-09-27T10:47:20.505Z,21.70
2017-09-27T10:49:48.844Z,21.80
2017-09-27T10:52:17.160Z,21.80
2017-09-27T10:54:45.490Z,21.80
2017-09-27T10:57:13.809Z,21.70
2017-09-27T10:59:42.150Z,21.80
2017-09-27T11:02:10.468Z,21.90
2017-09-27T11:04:38.784Z,22.00
2017-09-27T11:07:07.128Z,22.10
2017-09-27T11:09:35.468Z,22.40
2017-09-27T11:12:03.799Z,22.70
2017-09-27T11:14:32.115Z,22.90
2017-09-27T11:17:00.883Z,23.10
2017-09-27T11:19:29.288Z,23.30
2017-09-27T11:21:57.617Z,23.40
2017-09-27T11:24:25.932Z,23.40
2017-09-27T11:26:54.355Z,23.20
2017-09-27T11:29:22.674Z,23.00
2017-09-27T11:31:50.988Z,23.10
2017-09-27T11:34:19.328Z,23.10
2017-09-27T11:36:47.643Z,23.10
2017-09-27T11:39:15.999Z,23.20
2017-09-27T11:41:44.315Z,23.50
2017-09-27T11:44:12.655Z,23.40
2017-09-27T11:46:41.176Z,23.60
2017-09-27T11:49:09.517Z,23.80
2017-09-27T11:51:37.838Z,23.90
2017-09-27T11:54:06.178Z,23.90
2017-09-27T11:56:34.492Z,24.10
2017-09-27T11:59:02.824Z,24.30
2017-09-27T12:01:31.160Z,23.90
2017-09-27T12:03:59.484Z,23.30
2017-09-27T12:06:29.347Z,23.00
2017-09-27T12:08:59.569Z,22.80
2017-09-27T12:11:29.809Z,23.00
2017-09-27T12:14:02.238Z,23.40
2017-09-27T12:16:34.171Z,23.30
2017-09-27T12:19:04.752Z,23.30
2017-09-27T12:21:34.647Z,23.40
2017-09-27T12:24:02.981Z,23.20
2017-09-27T12:26:31.337Z,22.90
2017-09-27T12:29:00.509Z,22.80
2017-09-27T12:31:29.472Z,22.90
2017-09-27T12:33:58.004Z,23.20
2017-09-27T12:36:26.319Z,23.60
2017-09-27T12:38:54.656Z,24.00
2017-09-27T12:41:22.980Z,24.40
2017-09-27T12:43:51.321Z,24.70
2017-09-27T12:46:19.632Z,24.80
2017-09-27T12:48:48.203Z,24.90
2017-09-27T12:51:16.536Z,25.00
2017-09-27T12:53:44.895Z,25.00
2017-09-27T12:56:13.708Z,24.70
2017-09-27T12:58:42.195Z,24.40
2017-09-27T13:01:10.527Z,24.10
2017-09-27T13:03:38.847Z,23.90
2017-09-27T13:06:07.263Z,23.70
2017-09-27T13:08:35.843Z,23.50
2017-09-27T13:11:04.382Z,23.20
2017-09-27T13:13:32.896Z,23.10
2017-09-27T13:16:01.244Z,23.10
2017-09-27T13:18:29.561Z,23.40
2017-09-27T13:20:57.931Z,23.70
2017-09-27T13:23:28.591Z,23.70
2017-09-27T13:25:58.118Z,23.70
2017-09-27T13:28:26.544Z,23.70
2017-09-27T13:30:55.062Z,23.70
2017-09-27T13:33:23.384Z,23.70
2017-09-27T13:35:51.739Z,23.70
2017-09-27T13:38:20.075Z,23.90
2017-09-27T13:40:48.414Z,23.70
2017-09-27T13:43:16.759Z,23.50
2017-09-27T13:45:45.113Z,23.20
2017-09-27T13:48:13.447Z,23.00
2017-09-27T13:50:41.768Z,22.90
2017-09-27T13:53:10.105Z,22.80
2017-09-27T13:55:38.429Z,22.70
2017-09-27T13:58:06.755Z,22.80
2017-09-27T14:00:34.301Z,22.70
2017-09-27T14:03:02.628Z,23.60
2017-09-27T14:05:30.938Z,23.80
2017-09-27T14:07:59.249Z,23.80
2017-09-27T14:10:27.734Z,23.90
2017-09-27T14:12:56.088Z,24.00
2017-09-27T14:15:24.516Z,23.60
2017-09-27T14:17:52.868Z,23.30
2017-09-27T14:20:21.236Z,23.00
2017-09-27T14:22:49.596Z,22.80
2017-09-27T14:25:17.964Z,22.70
2017-09-27T14:27:46.372Z,22.60
2017-09-27T14:30:14.905Z,22.70
2017-09-27T14:32:43.224Z,22.80
2017-09-27T14:35:11.581Z,23.10
2017-09-27T14:37:39.892Z,23.50
2017-09-27T14:40:08.244Z,23.80
2017-09-27T14:42:36.560Z,24.00
2017-09-27T14:45:04.869Z,24.10
2017-09-27T14:47:33.215Z,23.90
2017-09-27T14:50:01.527Z,23.70
2017-09-27T14:52:29.856Z,23.50
2017-09-27T14:54:57.408Z,23.50
2017-09-27T14:57:25.744Z,23.50
2017-09-27T15:02:39.976Z,23.20
2017-09-27T15:05:08.291Z,23.20
2017-09-27T15:07:36.657Z,23.30
2017-09-27T15:10:04.988Z,23.40
2017-09-27T15:12:33.332Z,23.60
2017-09-27T15:15:01.901Z,23.80
2017-09-27T15:17:30.275Z,23.90
2017-09-27T15:19:58.841Z,23.80
2017-09-27T15:22:27.181Z,23.70
2017-09-27T15:24:55.553Z,24.00
2017-09-27T15:27:23.872Z,24.00
2017-09-27T15:29:52.204Z,23.90
2017-09-27T15:32:20.523Z,23.80
2017-09-27T15:34:48.855Z,23.60
2017-09-27T15:37:17.166Z,23.30
2017-09-27T15:39:45.492Z,23.00
2017-09-27T15:42:13.804Z,22.60
2017-09-27T15:44:42.149Z,22.30
2017-09-27T15:47:10.479Z,22.00
2017-09-27T15:49:38.877Z,21.80
2017-09-27T15:52:07.215Z,21.60
2017-09-27T15:54:35.553Z,21.40
2017-09-27T15:57:03.889Z,21.20
2017-09-27T15:59:32.202Z,21.00
2017-09-27T16:02:00.531Z,20.80
2017-09-27T16:04:28.841Z,20.60
2017-09-27T16:06:56.423Z,20.60
2017-09-27T16:09:24.749Z,20.10
2017-09-27T16:11:53.101Z,19.90
2017-09-27T16:14:21.434Z,19.80
2017-09-27T16:16:49.746Z,19.60
2017-09-27T16:19:18.087Z,19.40
2017-09-27T16:21:46.402Z,19.30
2017-09-27T16:24:14.727Z,19.10
2017-09-27T16:26:43.044Z,18.90
2017-09-27T16:29:11.379Z,18.80
2017-09-27T16:31:39.693Z,18.60
2017-09-27T16:34:08.043Z,18.50
2017-09-27T16:36:36.429Z,18.30
2017-09-27T16:39:04.751Z,18.20
2017-09-27T16:41:32.318Z,18.10
2017-09-27T16:44:00.632Z,17.80
2017-09-27T16:46:28.974Z,17.70
2017-09-27T16:48:57.292Z,17.60
2017-09-27T16:51:25.631Z,17.40
2017-09-27T16:53:53.945Z,17.30
2017-09-27T16:56:22.296Z,17.20
2017-09-27T16:58:50.612Z,17.10
2017-09-27T17:01:18.924Z,17.00
2017-09-27T17:03:47.250Z,16.90
2017-09-27T17:06:15.569Z,16.80
2017-09-27T17:08:43.896Z,16.70
2017-09-27T17:11:12.206Z,16.60
2017-09-27T17:13:40.546Z,16.50
2017-09-27T17:16:08.876Z,16.40
2017-09-27T17:18:37.241Z,16.30
2017-09-27T17:21:05.564Z,16.20
2017-09-27T17:23:33.991Z,16.10
2017-09-27T17:26:02.339Z,16.00
2017-09-27T17:28:30.767Z,15.90
2017-09-27T17:30:59.203Z,15.80
2017-09-27T17:33:27.516Z,15.80
2017-09-27T17:35:55.844Z,15.70
2017-09-27T17:38:24.283Z,15.60
2017-09-27T17:40:52.652Z,15.50
2017-09-27T17:43:21.007Z,15.40
2017-09-27T17:45:49.344Z,15.30
2017-09-27T17:48:17.733Z,15.30
2017-09-27T17:50:45.388Z,15.20
2017-09-27T17:53:13.835Z,15.20
2017-09-27T17:55:42.181Z,15.10
2017-09-27T17:58:10.519Z,15.10
2017-09-27T18:00:38.836Z,15.00
2017-09-27T18:03:07.268Z,14.90
2017-09-27T18:05:53.572Z,14.90
2017-09-27T18:08:38.598Z,14.90
2017-09-27T18:11:15.711Z,14.80
2017-09-27T18:13:49.812Z,14.80
2017-09-27T18:16:23.791Z,14.70
2017-09-27T18:18:52.211Z,14.70
2017-09-27T18:21:20.524Z,14.70
2017-09-27T18:23:48.836Z,14.70
2017-09-27T18:26:17.188Z,14.60
2017-09-27T18:28:45.517Z,14.50
2017-09-27T18:31:13.855Z,14.50
2017-09-27T18:33:42.246Z,14.40
2017-09-27T18:36:10.589Z,14.40
2017-09-27T18:38:38.915Z,14.40
2017-09-27T18:41:07.288Z,14.30
2017-09-27T18:43:35.609Z,14.30
2017-09-27T18:46:03.963Z,14.30
2017-09-27T18:48:32.279Z,14.20
2017-09-27T18:51:00.600Z,14.20
2017-09-27T18:53:28.181Z,14.20
2017-09-27T18:55:56.517Z,14.10
2017-09-27T18:58:24.865Z,14.10
2017-09-27T19:00:53.190Z,14.10
2017-09-27T19:03:21.536Z,14.10
2017-09-27T19:05:49.847Z,14.00
2017-09-27T19:08:18.208Z,14.00
2017-09-27T19:10:46.517Z,14.00
2017-09-27T19:13:14.838Z,13.90
2017-09-27T19:15:43.180Z,13.90
2017-09-27T19:18:11.493Z,13.90
2017-09-27T19:20:39.832Z,13.90
2017-09-27T19:23:08.140Z,13.80
2017-09-27T19:25:36.508Z,13.80
2017-09-27T19:28:04.827Z,13.80
2017-09-27T19:30:33.137Z,13.80
2017-09-27T19:33:01.480Z,13.80
2017-09-27T19:35:29.802Z,13.80
2017-09-27T19:37:58.139Z,13.70
2017-09-27T19:40:26.458Z,13.70
2017-09-27T19:42:54.817Z,13.70
2017-09-27T19:45:23.130Z,13.70
2017-09-27T19:47:51.476Z,13.70
2017-09-27T19:50:19.832Z,13.60
2017-09-27T19:52:48.185Z,13.60
2017-09-27T19:55:16.509Z,13.60
2017-09-27T19:57:44.835Z,13.60
2017-09-27T20:00:13.174Z,13.60
2017-09-27T20:02:41.489Z,13.60
2017-09-27T20:05:09.918Z,13.50
2017-09-27T20:07:38.232Z,13.50
2017-09-27T20:10:05.847Z,13.50
2017-09-27T20:12:34.159Z,13.50
2017-09-27T20:15:02.504Z,13.40
2017-09-27T20:17:30.833Z,13.40
2017-09-27T20:19:59.191Z,13.30
2017-09-27T20:22:27.511Z,13.30
2017-09-27T20:24:55.895Z,13.30
2017-09-27T20:27:24.239Z,13.20
2017-09-27T20:29:52.555Z,13.20
2017-09-27T20:32:20.127Z,13.20
2017-09-27T20:34:48.496Z,13.20
2017-09-27T20:37:16.856Z,13.20
2017-09-27T20:39:45.239Z,13.20
2017-09-27T20:42:13.594Z,13.20
2017-09-27T20:44:41.187Z,13.20
2017-09-27T20:47:09.545Z,13.10
2017-09-27T20:49:45.371Z,13.10
2017-09-27T20:52:13.836Z,13.10
2017-09-27T20:54:42.152Z,13.00
2017-09-27T20:57:10.464Z,13.00
2017-09-27T20:59:38.795Z,13.00
2017-09-27T21:02:07.118Z,12.90
2017-09-27T21:04:35.469Z,12.80
2017-09-27T21:07:03.863Z,12.70
2017-09-27T21:09:32.200Z,12.70
2017-09-27T21:12:00.616Z,12.60
2017-09-27T21:14:28.207Z,12.60
2017-09-27T21:16:56.521Z,12.50
2017-09-27T21:19:24.859Z,12.40
2017-09-27T21:21:53.223Z,12.40
2017-09-27T21:24:21.564Z,12.30
2017-09-27T21:26:49.996Z,12.20
2017-09-27T21:29:18.308Z,12.20
2017-09-27T21:31:46.653Z,12.20
2017-09-27T21:34:14.968Z,12.20
2017-09-27T21:36:43.346Z,12.20
2017-09-27T21:39:11.759Z,12.20
2017-09-27T21:41:40.076Z,12.10
2017-09-27T21:44:08.437Z,12.10
2017-09-27T21:46:36.755Z,12.10
2017-09-27T21:49:05.092Z,12.00
2017-09-27T21:51:33.480Z,12.00
2017-09-27T21:54:02.033Z,12.00
2017-09-27T21:56:30.609Z,11.90
2017-09-27T21:58:59.199Z,11.90
2017-09-27T22:01:27.595Z,11.80
2017-09-27T22:03:55.985Z,11.70
2017-09-27T22:06:24.395Z,11.70
2017-09-27T22:08:52.972Z,11.70
2017-09-27T22:11:21.308Z,11.70
2017-09-27T22:13:49.664Z,11.70
2017-09-27T22:16:17.231Z,11.60
2017-09-27T22:18:45.606Z,11.60
2017-09-27T22:21:13.943Z,11.60
2017-09-27T22:23:42.253Z,11.60
2017-09-27T22:26:09.825Z,11.60
2017-09-27T22:28:38.198Z,11.60
2017-09-27T22:31:06.537Z,11.60
2017-09-27T22:33:34.855Z,11.60
2017-09-27T22:36:03.184Z,11.50
2017-09-27T22:38:31.527Z,11.50
2017-09-27T22:40:59.849Z,11.50
2017-09-27T22:43:28.285Z,11.50
2017-09-27T22:45:56.609Z,11.50
2017-09-27T22:48:24.946Z,11.50
2017-09-27T22:50:53.267Z,11.50
2017-09-27T22:53:21.619Z,11.50
2017-09-27T22:55:49.931Z,11.40
2017-09-27T22:58:18.369Z,11.40
2017-09-27T23:00:46.679Z,11.40
2017-09-27T23:03:14.995Z,11.40
2017-09-27T23:05:42.570Z,11.30
2017-09-27T23:08:10.916Z,11.30
2017-09-27T23:10:39.254Z,11.30
2017-09-27T23:13:07.572Z,11.30
2017-09-27T23:15:35.145Z,11.30
2017-09-27T23:18:03.456Z,11.20
2017-09-27T23:20:31.806Z,11.20
2017-09-27T23:23:00.124Z,11.20
2017-09-27T23:25:28.463Z,11.10
2017-09-27T23:27:56.792Z,11.10
2017-09-27T23:30:25.201Z,11.10
2017-09-27T23:32:52.772Z,11.00
2017-09-27T23:35:21.135Z,11.00
2017-09-27T23:37:49.484Z,10.90
2017-09-27T23:40:17.893Z,10.90
2017-09-27T23:42:46.234Z,10.90
2017-09-27T23:45:14.554Z,10.80
2017-09-27T23:47:42.893Z,10.80
2017-09-27T23:50:11.203Z,10.80
2017-09-27T23:52:39.545Z,10.80
2017-09-27T23:55:07.872Z,10.70
2017-09-27T23:57:36.227Z,10.70
